台北近場台-松西席(RCSS Approach)

台北近場台-松西席(RCSS Approach)
Songshan Metar:
2017/10/17 23:30 RCSS 172330Z 10003KT 060V140 9999 -RA FEW010 SCT018 BKN040 26/24 Q1013 NOSIG RMK A2994

站台狀態:

台北飛航服務區-掃描席(區管/近場)
站台狀態: